Fort Lauderdale Executive Airport Fort Lauderdale US
ICAO: KFXE
IATA: FXE
Category: Medium
Scheduled Services: No

Elevation: 13 ft
TransAlt. 18000 ft.

Airport Communications:
MIAMI APP/DEP:119.7
ATIS:119.85
CLNC DEL:127.95
EXECUTIVE GND:121.75
EXECUTIVE TWR:120.9
UNICOM:122.95

KFXE Zoom In..

Runways:

(A) RW 08 length 6002 ft width 100 ft
ILS 111.10 / hdg 87

(B) RW 13 length 4000 ft width 100 ft
---- / hdg 132

(C) RW 26 length 6002 ft width 100 ft
---- / hdg 267

(D) RW 31 length 4000 ft width 100 ft
---- / hdg 312

Location; KFXE
Day. 22 / Time. 01.53 Zulu
* Altimeter: 30.05
* Temperature: 27° c. 80.6°f.
* Wind from: 100° Speed 13 kn.
Dewpoint: 23° c.
Visibility: 10 Statute Miles.
Clouds: Few 2500 ft.
Clouds: Scattered 3000 ft.
Clouds: Broken 11000 ft.

KFXE 220153Z 10013KT 10SM FEW025 SCT030 BKN110 27/23 A3005 RMK AO2 SLP179 T02670228


Wind From 100°
Speed 13 kn.

 
 
jpsmedia.com for Web Design SOUNDCLOUD worldairports.se 2018   terms of use